Magnus Stedje Fossen har fløyet solo PDF Skriv ut E-post
Skrevet av Dmytro Yakovenko   
fredag 28. juli 2017 22:41

Magnus Stedje Fossen fløy soloutsjekk med Hallgeir Olsen og sin første solotur i dag, 28. juli 2017. Magnus er den andre som har fløyet solo i løpet av en uke og det er gledelig at det skjer mye i flyskolen for tiden. Selv om sommerværet satt en stopper for soloutsjekken i går ble den fullført i dag og etter en liten time i luften med assisterende skolesjef, ble Magnus sendt på sine første solo landingsrunder. Skolen og Styret gratulerer Magnus med en vel gjennomført solotur og ønsker han lykke til med resten av skoleprogrammet. Hovedinstruktøren har vært Dmytro Yakovenko.

Sist oppdatert fredag 28. juli 2017 22:48
 
 
METAR
2018/10/20 21:20 ENCN 202120Z AUTO 24005KT 9999 FEW014/// BKN019/// OVC025/// 10/07 Q1024
TAF
2018/10/20 18:38 TAF ENCN 201700Z 2018/2021 VRB05KT 9999 FEW040 BKN070
LN-KFK
Operativ VFR-natt
VFR dag
07:33 - 18:51
Brannvakt
Inaktiv
Banner
Banner
Banner
Banner
Banner